createdAt,value
2023-04-14T00:02:40.630Z,12.44
2023-04-14T00:06:58.714Z,12.19
2023-04-14T00:11:14.945Z,11.79
2023-04-14T00:15:31.281Z,12.24
2023-04-14T00:19:47.618Z,12.10
2023-04-14T00:24:03.895Z,12.21
2023-04-14T00:28:20.068Z,12.12
2023-04-14T00:32:36.320Z,12.10
2023-04-14T00:36:52.532Z,11.86
2023-04-14T00:41:08.959Z,11.79
2023-04-14T00:45:27.472Z,12.09
2023-04-14T00:49:44.232Z,12.07
2023-04-14T00:54:02.435Z,12.23
2023-04-14T00:58:18.729Z,11.90
2023-04-14T01:02:35.141Z,12.10
2023-04-14T01:06:51.484Z,12.22
2023-04-14T01:11:43.837Z,11.94
2023-04-14T01:16:09.939Z,12.03
2023-04-14T01:20:31.577Z,12.28
2023-04-14T01:25:29.288Z,12.42
2023-04-14T01:30:10.632Z,12.28
2023-04-14T01:34:36.733Z,12.25
2023-04-14T01:38:53.812Z,12.17
2023-04-14T01:43:12.859Z,12.20
2023-04-14T01:47:29.789Z,12.32
2023-04-14T01:51:46.689Z,11.88
2023-04-14T01:56:03.934Z,12.15
2023-04-14T02:00:20.979Z,12.08
2023-04-14T02:04:38.374Z,11.95
2023-04-14T02:08:54.799Z,12.12
2023-04-14T02:13:13.366Z,12.34
2023-04-14T02:17:30.912Z,12.26
2023-04-14T02:21:49.540Z,12.17
2023-04-14T02:26:12.528Z,12.22
2023-04-14T02:30:37.985Z,11.96
2023-04-14T02:35:03.809Z,12.21
2023-04-14T02:39:32.472Z,12.07
2023-04-14T02:43:53.998Z,11.98
2023-04-14T02:48:13.316Z,11.97
2023-04-14T02:52:31.639Z,12.00
2023-04-14T02:56:48.228Z,11.74
2023-04-14T03:01:04.657Z,11.87
2023-04-14T03:05:21.928Z,12.12
2023-04-14T03:09:38.391Z,11.82
2023-04-14T03:13:56.590Z,12.33
2023-04-14T03:18:14.586Z,12.33
2023-04-14T03:22:31.925Z,12.13
2023-04-14T03:26:49.506Z,12.36
2023-04-14T03:31:06.529Z,12.39
2023-04-14T03:35:23.584Z,12.52
2023-04-14T03:39:40.777Z,12.40
2023-04-14T03:43:59.119Z,12.12
2023-04-14T03:48:18.526Z,11.93
2023-04-14T03:52:36.940Z,11.61
2023-04-14T03:56:57.052Z,12.33
2023-04-14T04:01:15.010Z,12.45
2023-04-14T04:05:31.349Z,12.32
2023-04-14T04:09:48.818Z,12.37
2023-04-14T04:14:07.183Z,12.28
2023-04-14T04:18:26.145Z,12.56
2023-04-14T04:22:44.550Z,12.61
2023-04-14T04:27:02.642Z,12.55
2023-04-14T04:31:19.239Z,11.52
2023-04-14T04:35:36.720Z,11.92
2023-04-14T04:39:52.914Z,11.94
2023-04-14T04:44:11.035Z,12.44
2023-04-14T04:48:27.147Z,12.48
2023-04-14T04:52:43.180Z,12.35
2023-04-14T04:57:01.173Z,12.59
2023-04-14T05:01:19.199Z,12.58
2023-04-14T05:05:38.065Z,12.73
2023-04-14T05:09:55.095Z,12.66
2023-04-14T05:14:11.234Z,12.92
2023-04-14T05:18:28.968Z,12.99
2023-04-14T05:22:45.112Z,12.84
2023-04-14T05:27:13.785Z,12.84
2023-04-14T05:31:32.681Z,12.84
2023-04-14T05:35:51.206Z,12.89
2023-04-14T05:40:10.078Z,12.97
2023-04-14T05:44:28.655Z,13.08
2023-04-14T05:48:44.909Z,13.32
2023-04-14T05:53:01.324Z,13.37
2023-04-14T05:57:20.933Z,13.56
2023-04-14T06:01:37.255Z,13.42
2023-04-14T06:05:53.586Z,13.36
2023-04-14T06:10:10.804Z,13.46
2023-04-14T06:14:26.967Z,13.50
2023-04-14T06:18:43.177Z,13.36
2023-04-14T06:23:01.008Z,13.56
2023-04-14T06:27:19.185Z,13.25
2023-04-14T06:31:36.142Z,13.37
2023-04-14T06:35:54.313Z,13.52
2023-04-14T06:40:11.739Z,13.50
2023-04-14T06:44:27.820Z,13.84
2023-04-14T06:48:44.296Z,13.91
2023-04-14T06:53:00.457Z,14.18
2023-04-14T06:57:18.633Z,14.38
2023-04-14T07:01:34.919Z,14.16
2023-04-14T07:05:51.600Z,14.53
2023-04-14T07:10:12.282Z,14.52
2023-04-14T07:14:29.590Z,14.27
2023-04-14T07:18:45.735Z,14.94
2023-04-14T07:23:01.900Z,14.94
2023-04-14T07:27:20.187Z,14.78
2023-04-14T07:31:38.245Z,14.45
2023-04-14T07:36:03.676Z,14.43
2023-04-14T07:40:20.969Z,14.68
2023-04-14T07:44:39.211Z,14.57
2023-04-14T07:48:55.508Z,14.24
2023-04-14T07:57:39.237Z,13.89
2023-04-14T08:02:01.583Z,14.79
2023-04-14T08:06:17.960Z,14.90
2023-04-14T08:10:36.731Z,14.68
2023-04-14T08:14:59.383Z,14.90
2023-04-14T08:19:16.991Z,14.99
2023-04-14T08:23:35.421Z,15.20
2023-04-14T08:27:58.034Z,15.11
2023-04-14T08:32:14.300Z,15.44
2023-04-14T08:36:34.011Z,15.34
2023-04-14T08:40:55.795Z,15.08
2023-04-14T08:45:13.036Z,14.87
2023-04-14T08:49:36.237Z,15.30
2023-04-14T08:53:53.797Z,14.92
2023-04-14T08:58:15.578Z,14.92
2023-04-14T09:02:39.429Z,14.83
2023-04-14T09:06:57.029Z,15.03
2023-04-14T09:11:14.225Z,14.81
2023-04-14T09:15:32.056Z,14.83
2023-04-14T09:20:38.171Z,15.01
2023-04-14T09:24:32.629Z,14.70
2023-04-14T09:28:49.132Z,14.56
2023-04-14T09:33:18.821Z,15.09
2023-04-14T09:37:49.499Z,14.99
2023-04-14T09:42:07.727Z,15.04
2023-04-14T09:46:23.909Z,14.79
2023-04-14T09:50:59.544Z,14.98
2023-04-14T09:55:17.118Z,15.03
2023-04-14T10:04:03.510Z,14.43
2023-04-14T10:08:19.730Z,13.95
2023-04-14T10:12:36.576Z,13.79
2023-04-14T10:16:53.086Z,13.50
2023-04-14T10:25:31.541Z,13.20
2023-04-14T10:29:47.723Z,13.60
2023-04-14T10:34:15.921Z,13.80
2023-04-14T10:38:43.280Z,13.46
2023-04-14T10:43:01.473Z,12.95
2023-04-14T10:47:25.308Z,13.60
2023-04-14T10:51:42.023Z,13.39
2023-04-14T10:56:02.482Z,13.29
2023-04-14T11:00:25.370Z,13.50
2023-04-14T11:05:00.673Z,13.36
2023-04-14T11:09:34.172Z,13.26
2023-04-14T11:14:12.312Z,13.17
2023-04-14T11:18:33.485Z,13.30
2023-04-14T11:22:51.005Z,13.54
2023-04-14T11:27:11.165Z,13.03
2023-04-14T11:31:28.131Z,13.30
2023-04-14T11:35:44.298Z,13.40
2023-04-14T11:40:00.576Z,13.33
2023-04-14T11:44:22.395Z,13.64
2023-04-14T11:48:38.868Z,13.59
2023-04-14T11:52:57.615Z,13.79
2023-04-14T11:57:14.904Z,13.85
2023-04-14T12:01:35.717Z,13.67
2023-04-14T12:05:56.511Z,13.79
2023-04-14T12:10:13.842Z,13.47
2023-04-14T12:14:30.023Z,13.17
2023-04-14T12:18:46.550Z,13.32
2023-04-14T12:23:04.864Z,13.31
2023-04-14T12:27:25.641Z,13.27
2023-04-14T12:31:45.376Z,13.02
2023-04-14T12:36:12.343Z,13.35
2023-04-14T12:40:39.762Z,12.83
2023-04-14T12:45:00.726Z,13.13
2023-04-14T12:49:37.538Z,13.19
2023-04-14T12:54:08.348Z,13.18
2023-04-14T12:58:26.905Z,12.78
2023-04-14T13:02:45.512Z,12.95
2023-04-14T13:07:03.617Z,12.57
2023-04-14T13:11:21.037Z,12.21
2023-04-14T13:16:13.161Z,12.20
2023-04-14T13:20:13.465Z,12.32
2023-04-14T13:24:29.656Z,12.24
2023-04-14T13:28:48.224Z,11.90
2023-04-14T13:33:04.437Z,12.13
2023-04-14T13:37:23.931Z,12.47
2023-04-14T13:41:40.182Z,12.56
2023-04-14T13:46:00.224Z,12.17
2023-04-14T13:50:17.880Z,11.68
2023-04-14T13:54:35.528Z,11.67
2023-04-14T13:58:54.622Z,11.31
2023-04-14T14:03:10.980Z,11.72
2023-04-14T14:07:27.446Z,11.24
2023-04-14T14:11:46.841Z,11.36
2023-04-14T14:16:03.557Z,11.03
2023-04-14T14:20:20.096Z,11.14
2023-04-14T14:24:36.399Z,11.50
2023-04-14T14:28:52.532Z,11.97
2023-04-14T14:33:08.876Z,12.08
2023-04-14T14:37:25.117Z,12.29
2023-04-14T14:41:41.344Z,12.57
2023-04-14T14:45:57.581Z,12.78
2023-04-14T14:50:15.710Z,12.90
2023-04-14T14:54:31.860Z,12.91
2023-04-14T14:58:48.177Z,12.69
2023-04-14T15:03:05.465Z,12.81
2023-04-14T15:07:21.705Z,12.89
2023-04-14T15:11:39.770Z,12.51
2023-04-14T15:15:55.892Z,12.44
2023-04-14T15:20:12.716Z,12.39
2023-04-14T15:24:28.878Z,11.68
2023-04-14T15:28:47.537Z,11.44
2023-04-14T15:33:03.755Z,11.61
2023-04-14T15:37:19.975Z,11.90
2023-04-14T15:41:36.594Z,11.76
2023-04-14T15:45:53.053Z,12.00
2023-04-14T15:50:10.545Z,12.07
2023-04-14T15:54:26.954Z,12.14
2023-04-14T15:58:43.291Z,12.19
2023-04-14T16:03:01.889Z,12.06
2023-04-14T16:07:18.334Z,12.21
2023-04-14T16:11:34.838Z,11.79
2023-04-14T16:15:51.097Z,11.85
2023-04-14T16:20:07.575Z,11.91
2023-04-14T16:24:23.714Z,11.86
2023-04-14T16:28:39.845Z,11.76
2023-04-14T16:32:56.035Z,11.95
2023-04-14T16:37:14.310Z,11.94
2023-04-14T16:41:30.654Z,11.73
2023-04-14T16:45:46.848Z,11.62
2023-04-14T16:50:03.201Z,11.58
2023-04-14T16:54:19.382Z,11.49
2023-04-14T16:58:37.213Z,11.01
2023-04-14T17:02:53.924Z,11.02
2023-04-14T17:07:10.500Z,11.12
2023-04-14T17:11:27.206Z,10.62
2023-04-14T17:15:49.486Z,10.37
2023-04-14T17:20:10.688Z,10.38
2023-04-14T17:24:26.878Z,10.22
2023-04-14T17:28:43.129Z,10.30
2023-04-14T17:32:59.390Z,10.06
2023-04-14T17:37:15.964Z,9.58
2023-04-14T17:41:32.075Z,9.63
2023-04-14T17:45:50.697Z,9.48
2023-04-14T17:50:07.728Z,9.70
2023-04-14T17:54:24.029Z,9.27
2023-04-14T17:58:40.276Z,9.17
2023-04-14T18:03:00.101Z,8.97
2023-04-14T18:07:16.984Z,9.56
2023-04-14T18:11:33.152Z,9.59
2023-04-14T18:15:50.794Z,9.64
2023-04-14T18:20:08.004Z,9.51
2023-04-14T18:28:44.014Z,9.34
2023-04-14T18:33:01.048Z,9.29
2023-04-14T18:37:17.825Z,9.07
2023-04-14T18:41:34.316Z,9.21
2023-04-14T18:45:50.820Z,9.05
2023-04-14T18:50:07.717Z,9.28
2023-04-14T18:54:25.798Z,9.51
2023-04-14T18:58:41.954Z,9.26
2023-04-14T19:02:58.406Z,9.37
2023-04-14T19:07:14.461Z,9.52
2023-04-14T19:11:36.023Z,9.61
2023-04-14T19:15:52.905Z,9.48
2023-04-14T19:20:09.501Z,9.83
2023-04-14T19:24:27.441Z,9.28
2023-04-14T19:28:45.894Z,8.68
2023-04-14T19:33:02.524Z,8.64
2023-04-14T19:37:18.842Z,8.69
2023-04-14T19:41:35.006Z,8.19
2023-04-14T19:45:52.547Z,7.78
2023-04-14T19:50:10.081Z,7.92
2023-04-14T19:54:26.621Z,8.00
2023-04-14T19:58:44.288Z,7.66
2023-04-14T20:03:00.445Z,7.77
2023-04-14T20:07:16.626Z,8.05
2023-04-14T20:11:32.857Z,8.31
2023-04-14T20:15:49.481Z,8.41
2023-04-14T20:20:06.180Z,8.51
2023-04-14T20:24:22.337Z,8.54
2023-04-14T20:28:39.999Z,8.61
2023-04-14T20:32:56.766Z,8.80
2023-04-14T20:37:13.568Z,8.72
2023-04-14T20:41:29.816Z,8.97
2023-04-14T20:45:46.283Z,9.01
2023-04-14T20:50:03.426Z,9.02
2023-04-14T20:54:19.540Z,8.97
2023-04-14T20:58:35.743Z,8.93
2023-04-14T21:02:52.286Z,8.97
2023-04-14T21:07:08.512Z,8.70
2023-04-14T21:11:24.656Z,8.93
2023-04-14T21:15:55.608Z,8.77
2023-04-14T21:20:13.489Z,8.61
2023-04-14T21:24:29.660Z,8.23
2023-04-14T21:28:45.903Z,8.46
2023-04-14T21:33:02.120Z,8.27
2023-04-14T21:37:19.078Z,8.33
2023-04-14T21:41:35.926Z,8.04
2023-04-14T21:45:54.202Z,8.09
2023-04-14T21:50:10.875Z,8.15
2023-04-14T21:54:27.315Z,8.02
2023-04-14T21:58:43.460Z,7.95
2023-04-14T22:02:59.812Z,7.85
2023-04-14T22:07:16.068Z,7.79
2023-04-14T22:11:33.423Z,7.75
2023-04-14T22:15:50.275Z,7.70
2023-04-14T22:20:08.024Z,7.87
2023-04-14T22:24:24.388Z,7.95
2023-04-14T22:28:41.232Z,8.03
2023-04-14T22:32:57.642Z,8.34
2023-04-14T22:37:14.075Z,8.26
2023-04-14T22:41:30.302Z,8.28
2023-04-14T22:45:46.545Z,8.40
2023-04-14T22:50:02.902Z,8.02
2023-04-14T22:54:18.989Z,8.37
2023-04-14T22:58:39.368Z,8.34
2023-04-14T23:02:56.004Z,8.32
2023-04-14T23:07:12.384Z,8.15
2023-04-14T23:11:28.594Z,7.89
2023-04-14T23:15:44.824Z,7.91
2023-04-14T23:20:04.343Z,7.93
2023-04-14T23:24:20.925Z,8.06
2023-04-14T23:28:37.107Z,8.12
2023-04-14T23:32:53.433Z,8.04
2023-04-14T23:37:09.601Z,8.22
2023-04-14T23:41:25.861Z,8.28
2023-04-14T23:50:05.579Z,8.38
2023-04-14T23:54:21.621Z,8.53
2023-04-14T23:58:37.986Z,8.49
